sensor_id;sensor_type;location;lat;lon;timestamp;pressure;altitude;pressure_sealevel;temperature;humidity
61434;BME280;47300;46.192;9.000;2023-02-04T00:00:20;98759.06;;;15.23;32.47
61434;BME280;47300;46.192;9.000;2023-02-04T00:02:46;98727.22;;;15.29;31.95
61434;BME280;47300;46.192;9.000;2023-02-04T00:05:12;98703.16;;;15.41;31.64
61434;BME280;47300;46.192;9.000;2023-02-04T00:07:37;98736.84;;;15.31;32.27
61434;BME280;47300;46.192;9.000;2023-02-04T00:10:03;98714.06;;;15.24;32.28
61434;BME280;47300;46.192;9.000;2023-02-04T00:12:28;98747.00;;;15.06;32.44
61434;BME280;47300;46.192;9.000;2023-02-04T00:14:54;98708.28;;;15.03;32.70
61434;BME280;47300;46.192;9.000;2023-02-04T00:17:19;98727.69;;;15.02;32.60
61434;BME280;47300;46.192;9.000;2023-02-04T00:19:44;98702.13;;;15.03;32.43
61434;BME280;47300;46.192;9.000;2023-02-04T00:22:09;98722.41;;;15.02;32.35
61434;BME280;47300;46.192;9.000;2023-02-04T00:24:35;98722.47;;;14.99;32.51
61434;BME280;47300;46.192;9.000;2023-02-04T00:27:01;98708.28;;;15.03;32.14
61434;BME280;47300;46.192;9.000;2023-02-04T00:29:26;98662.94;;;15.25;31.58
61434;BME280;47300;46.192;9.000;2023-02-04T00:31:51;98712.44;;;15.18;31.88
61434;BME280;47300;46.192;9.000;2023-02-04T00:34:17;98735.47;;;15.10;31.50
61434;BME280;47300;46.192;9.000;2023-02-04T00:36:42;98702.91;;;15.08;31.63
61434;BME280;47300;46.192;9.000;2023-02-04T00:39:07;98695.97;;;15.02;31.77
61434;BME280;47300;46.192;9.000;2023-02-04T00:41:33;98676.63;;;15.00;31.82
61434;BME280;47300;46.192;9.000;2023-02-04T00:43:58;98676.25;;;15.21;31.32
61434;BME280;47300;46.192;9.000;2023-02-04T00:46:23;98675.50;;;15.14;31.24
61434;BME280;47300;46.192;9.000;2023-02-04T00:48:48;98667.63;;;15.11;31.59
61434;BME280;47300;46.192;9.000;2023-02-04T00:51:13;98674.59;;;15.15;31.43
61434;BME280;47300;46.192;9.000;2023-02-04T00:53:39;98668.66;;;15.02;31.43
61434;BME280;47300;46.192;9.000;2023-02-04T00:56:04;98668.53;;;15.10;31.01
61434;BME280;47300;46.192;9.000;2023-02-04T00:58:29;98657.84;;;15.14;31.37
61434;BME280;47300;46.192;9.000;2023-02-04T01:00:54;98655.25;;;15.11;31.35
61434;BME280;47300;46.192;9.000;2023-02-04T01:03:20;98657.06;;;15.09;31.53
61434;BME280;47300;46.192;9.000;2023-02-04T01:05:45;98631.47;;;15.11;31.64
61434;BME280;47300;46.192;9.000;2023-02-04T01:08:10;98650.06;;;15.51;30.96
61434;BME280;47300;46.192;9.000;2023-02-04T01:10:35;98635.44;;;15.34;30.82
61434;BME280;47300;46.192;9.000;2023-02-04T01:13:01;98665.69;;;15.21;31.16
61434;BME280;47300;46.192;9.000;2023-02-04T01:15:26;98639.31;;;15.17;31.44
61434;BME280;47300;46.192;9.000;2023-02-04T01:17:51;98590.13;;;15.07;31.90
61434;BME280;47300;46.192;9.000;2023-02-04T01:20:16;98587.00;;;15.30;31.37
61434;BME280;47300;46.192;9.000;2023-02-04T01:22:42;98610.75;;;15.33;31.46
61434;BME280;47300;46.192;9.000;2023-02-04T01:25:07;98619.41;;;15.42;31.17
61434;BME280;47300;46.192;9.000;2023-02-04T01:27:32;98627.50;;;15.34;31.55
61434;BME280;47300;46.192;9.000;2023-02-04T01:29:57;98636.41;;;15.28;31.97
61434;BME280;47300;46.192;9.000;2023-02-04T01:32:22;98597.69;;;15.26;31.83
61434;BME280;47300;46.192;9.000;2023-02-04T01:34:48;98590.06;;;15.10;32.14
61434;BME280;47300;46.192;9.000;2023-02-04T01:37:13;98637.25;;;15.30;32.02
61434;BME280;47300;46.192;9.000;2023-02-04T01:39:38;98591.47;;;15.28;32.02
61434;BME280;47300;46.192;9.000;2023-02-04T01:42:04;98619.53;;;15.36;32.25
61434;BME280;47300;46.192;9.000;2023-02-04T01:44:29;98625.69;;;15.36;32.26
61434;BME280;47300;46.192;9.000;2023-02-04T01:46:55;98609.66;;;15.44;32.64
61434;BME280;47300;46.192;9.000;2023-02-04T01:49:20;98626.44;;;15.43;32.65
61434;BME280;47300;46.192;9.000;2023-02-04T01:51:46;98619.44;;;15.40;32.67
61434;BME280;47300;46.192;9.000;2023-02-04T01:54:11;98606.59;;;15.64;32.40
61434;BME280;47300;46.192;9.000;2023-02-04T01:56:38;98604.09;;;15.56;32.86
61434;BME280;47300;46.192;9.000;2023-02-04T01:59:13;98615.75;;;15.47;33.35
61434;BME280;47300;46.192;9.000;2023-02-04T02:01:40;98616.00;;;15.37;33.39
61434;BME280;47300;46.192;9.000;2023-02-04T02:04:10;98603.19;;;15.57;33.28
61434;BME280;47300;46.192;9.000;2023-02-04T02:06:35;98591.03;;;15.50;33.61
61434;BME280;47300;46.192;9.000;2023-02-04T02:09:02;98636.34;;;15.33;34.04
61434;BME280;47300;46.192;9.000;2023-02-04T02:11:28;98591.50;;;15.27;34.44
61434;BME280;47300;46.192;9.000;2023-02-04T02:13:53;98589.78;;;15.26;34.40
61434;BME280;47300;46.192;9.000;2023-02-04T02:16:18;98589.50;;;15.38;34.69
61434;BME280;47300;46.192;9.000;2023-02-04T02:18:44;98584.38;;;15.30;34.57
61434;BME280;47300;46.192;9.000;2023-02-04T02:21:09;98588.97;;;15.63;34.01
61434;BME280;47300;46.192;9.000;2023-02-04T02:23:49;98575.16;;;15.48;34.61
61434;BME280;47300;46.192;9.000;2023-02-04T02:26:16;98569.78;;;15.53;34.32
61434;BME280;47300;46.192;9.000;2023-02-04T02:28:42;98572.34;;;15.56;34.60
61434;BME280;47300;46.192;9.000;2023-02-04T02:31:07;98551.19;;;15.56;34.52
61434;BME280;47300;46.192;9.000;2023-02-04T02:33:33;98551.09;;;15.61;34.64
61434;BME280;47300;46.192;9.000;2023-02-04T02:35:58;98567.91;;;15.58;34.54
61434;BME280;47300;46.192;9.000;2023-02-04T02:38:24;98547.25;;;15.74;34.20
61434;BME280;47300;46.192;9.000;2023-02-04T02:40:49;98537.13;;;15.54;34.69
61434;BME280;47300;46.192;9.000;2023-02-04T02:43:24;98558.59;;;15.42;34.85
61434;BME280;47300;46.192;9.000;2023-02-04T02:45:51;98538.22;;;15.45;35.25
61434;BME280;47300;46.192;9.000;2023-02-04T02:48:17;98525.19;;;15.36;35.29
61434;BME280;47300;46.192;9.000;2023-02-04T02:50:42;98543.72;;;15.36;35.08
61434;BME280;47300;46.192;9.000;2023-02-04T02:53:09;98524.06;;;15.48;35.13
61434;BME280;47300;46.192;9.000;2023-02-04T02:55:35;98542.72;;;15.42;35.23
61434;BME280;47300;46.192;9.000;2023-02-04T02:58:00;98527.69;;;15.42;35.28
61434;BME280;47300;46.192;9.000;2023-02-04T03:00:26;98552.63;;;15.32;35.49
61434;BME280;47300;46.192;9.000;2023-02-04T03:05:19;98523.84;;;15.57;35.04
61434;BME280;47300;46.192;9.000;2023-02-04T03:07:45;98531.00;;;15.54;35.08
61434;BME280;47300;46.192;9.000;2023-02-04T03:10:10;98509.69;;;15.60;34.86
61434;BME280;47300;46.192;9.000;2023-02-04T03:12:35;98518.31;;;15.67;34.50
61434;BME280;47300;46.192;9.000;2023-02-04T03:15:01;98523.00;;;15.55;34.75
61434;BME280;47300;46.192;9.000;2023-02-04T03:17:27;98536.38;;;15.49;34.96
61434;BME280;47300;46.192;9.000;2023-02-04T03:19:53;98507.88;;;15.62;34.81
61434;BME280;47300;46.192;9.000;2023-02-04T03:22:18;98520.25;;;15.60;34.41
61434;BME280;47300;46.192;9.000;2023-02-04T03:24:43;98512.09;;;15.69;34.49
61434;BME280;47300;46.192;9.000;2023-02-04T03:27:08;98487.63;;;15.59;34.94
61434;BME280;47300;46.192;9.000;2023-02-04T03:29:34;98484.41;;;15.83;34.15
61434;BME280;47300;46.192;9.000;2023-02-04T03:32:05;98498.06;;;16.03;33.71
61434;BME280;47300;46.192;9.000;2023-02-04T03:34:30;98513.03;;;16.04;33.61
61434;BME280;47300;46.192;9.000;2023-02-04T03:36:55;98517.31;;;16.10;33.64
61434;BME280;47300;46.192;9.000;2023-02-04T03:39:20;98492.88;;;15.99;33.76
61434;BME280;47300;46.192;9.000;2023-02-04T03:41:46;98459.44;;;15.96;34.01
61434;BME280;47300;46.192;9.000;2023-02-04T03:44:11;98501.09;;;15.88;34.04
61434;BME280;47300;46.192;9.000;2023-02-04T03:46:36;98503.78;;;15.85;33.88
61434;BME280;47300;46.192;9.000;2023-02-04T03:49:01;98517.34;;;15.71;34.40
61434;BME280;47300;46.192;9.000;2023-02-04T03:51:26;98510.97;;;15.80;34.02
61434;BME280;47300;46.192;9.000;2023-02-04T03:53:52;98497.66;;;15.83;34.16
61434;BME280;47300;46.192;9.000;2023-02-04T03:56:17;98496.16;;;15.72;34.04
61434;BME280;47300;46.192;9.000;2023-02-04T03:58:42;98476.06;;;15.63;34.29
61434;BME280;47300;46.192;9.000;2023-02-04T04:01:07;98481.28;;;15.67;34.53
61434;BME280;47300;46.192;9.000;2023-02-04T04:03:32;98499.44;;;15.82;33.81
61434;BME280;47300;46.192;9.000;2023-02-04T04:05:58;98464.84;;;15.91;33.53
61434;BME280;47300;46.192;9.000;2023-02-04T04:08:23;98509.31;;;15.75;34.19
61434;BME280;47300;46.192;9.000;2023-02-04T04:10:49;98478.03;;;15.93;33.83
61434;BME280;47300;46.192;9.000;2023-02-04T04:13:14;98508.31;;;16.17;32.45
61434;BME280;47300;46.192;9.000;2023-02-04T04:15:39;98494.31;;;16.12;33.06
61434;BME280;47300;46.192;9.000;2023-02-04T04:18:04;98477.16;;;15.93;33.17
61434;BME280;47300;46.192;9.000;2023-02-04T04:20:30;98479.91;;;15.88;33.20
61434;BME280;47300;46.192;9.000;2023-02-04T04:22:55;98474.63;;;15.88;33.39
61434;BME280;47300;46.192;9.000;2023-02-04T04:25:20;98480.00;;;15.83;33.43
61434;BME280;47300;46.192;9.000;2023-02-04T04:27:45;98495.53;;;15.99;33.17
61434;BME280;47300;46.192;9.000;2023-02-04T04:30:10;98484.28;;;15.89;33.25
61434;BME280;47300;46.192;9.000;2023-02-04T04:32:36;98496.41;;;15.99;33.15
61434;BME280;47300;46.192;9.000;2023-02-04T04:35:01;98489.25;;;16.03;32.79
61434;BME280;47300;46.192;9.000;2023-02-04T04:37:26;98504.09;;;16.10;32.58
61434;BME280;47300;46.192;9.000;2023-02-04T04:39:51;98498.97;;;16.02;33.03
61434;BME280;47300;46.192;9.000;2023-02-04T04:42:16;98483.34;;;15.91;33.20
61434;BME280;47300;46.192;9.000;2023-02-04T04:44:42;98485.69;;;16.04;33.22
61434;BME280;47300;46.192;9.000;2023-02-04T04:47:07;98496.16;;;16.10;32.65
61434;BME280;47300;46.192;9.000;2023-02-04T04:49:32;98498.91;;;16.04;32.99
61434;BME280;47300;46.192;9.000;2023-02-04T04:51:57;98515.63;;;16.06;33.04
61434;BME280;47300;46.192;9.000;2023-02-04T04:54:23;98500.00;;;15.97;33.17
61434;BME280;47300;46.192;9.000;2023-02-04T04:56:48;98517.53;;;16.01;33.09
61434;BME280;47300;46.192;9.000;2023-02-04T04:59:13;98531.84;;;15.94;32.96
61434;BME280;47300;46.192;9.000;2023-02-04T05:01:38;98524.66;;;15.99;32.88
61434;BME280;47300;46.192;9.000;2023-02-04T05:04:03;98511.22;;;16.06;32.11
61434;BME280;47300;46.192;9.000;2023-02-04T05:06:29;98523.41;;;16.14;32.16
61434;BME280;47300;46.192;9.000;2023-02-04T05:08:54;98507.91;;;16.33;31.72
61434;BME280;47300;46.192;9.000;2023-02-04T05:11:20;98485.84;;;16.32;31.62
61434;BME280;47300;46.192;9.000;2023-02-04T05:13:45;98516.25;;;16.17;32.11
61434;BME280;47300;46.192;9.000;2023-02-04T05:16:11;98490.69;;;16.16;32.01
61434;BME280;47300;46.192;9.000;2023-02-04T05:18:36;98505.53;;;16.22;32.06
61434;BME280;47300;46.192;9.000;2023-02-04T05:21:02;98501.31;;;16.15;32.30
61434;BME280;47300;46.192;9.000;2023-02-04T05:23:27;98508.75;;;15.99;32.37
61434;BME280;47300;46.192;9.000;2023-02-04T05:25:52;98520.44;;;15.90;32.61
61434;BME280;47300;46.192;9.000;2023-02-04T05:28:17;98522.66;;;16.07;32.03
61434;BME280;47300;46.192;9.000;2023-02-04T05:30:43;98523.56;;;16.06;32.03
61434;BME280;47300;46.192;9.000;2023-02-04T05:33:08;98549.03;;;16.13;31.61
61434;BME280;47300;46.192;9.000;2023-02-04T05:35:33;98533.22;;;16.10;31.99
61434;BME280;47300;46.192;9.000;2023-02-04T05:37:58;98541.03;;;16.15;32.01
61434;BME280;47300;46.192;9.000;2023-02-04T05:40:23;98527.84;;;16.12;32.01
61434;BME280;47300;46.192;9.000;2023-02-04T05:42:49;98517.09;;;16.18;31.83
61434;BME280;47300;46.192;9.000;2023-02-04T05:45:14;98540.16;;;16.14;31.72
61434;BME280;47300;46.192;9.000;2023-02-04T05:47:40;98518.97;;;16.14;32.04
61434;BME280;47300;46.192;9.000;2023-02-04T05:50:06;98545.94;;;16.30;31.51
61434;BME280;47300;46.192;9.000;2023-02-04T05:52:31;98547.97;;;16.19;31.87
61434;BME280;47300;46.192;9.000;2023-02-04T05:54:57;98535.81;;;16.12;32.07
61434;BME280;47300;46.192;9.000;2023-02-04T05:57:22;98526.94;;;16.14;32.35
61434;BME280;47300;46.192;9.000;2023-02-04T05:59:47;98532.31;;;16.10;32.23
61434;BME280;47300;46.192;9.000;2023-02-04T06:02:12;98528.75;;;16.12;31.98
61434;BME280;47300;46.192;9.000;2023-02-04T06:04:38;98544.75;;;16.06;32.46
61434;BME280;47300;46.192;9.000;2023-02-04T06:07:03;98518.38;;;16.03;32.72
61434;BME280;47300;46.192;9.000;2023-02-04T06:09:28;98533.72;;;15.88;33.12
61434;BME280;47300;46.192;9.000;2023-02-04T06:11:53;98503.06;;;15.78;33.32
61434;BME280;47300;46.192;9.000;2023-02-04T06:14:18;98539.91;;;15.86;33.07
61434;BME280;47300;46.192;9.000;2023-02-04T06:16:44;98554.00;;;15.89;32.53
61434;BME280;47300;46.192;9.000;2023-02-04T06:19:09;98554.03;;;15.86;32.84
61434;BME280;47300;46.192;9.000;2023-02-04T06:21:34;98540.97;;;15.80;33.24
61434;BME280;47300;46.192;9.000;2023-02-04T06:23:59;98556.72;;;15.85;32.89
61434;BME280;47300;46.192;9.000;2023-02-04T06:26:24;98537.44;;;15.80;33.12
61434;BME280;47300;46.192;9.000;2023-02-04T06:28:50;98572.81;;;15.75;32.85
61434;BME280;47300;46.192;9.000;2023-02-04T06:31:15;98570.72;;;15.90;32.59
61434;BME280;47300;46.192;9.000;2023-02-04T06:33:40;98575.38;;;15.80;32.85
61434;BME280;47300;46.192;9.000;2023-02-04T06:36:05;98556.19;;;15.69;33.23
61434;BME280;47300;46.192;9.000;2023-02-04T06:38:31;98560.63;;;15.68;33.01
61434;BME280;47300;46.192;9.000;2023-02-04T06:40:56;98544.72;;;15.70;33.14
61434;BME280;47300;46.192;9.000;2023-02-04T06:43:21;98581.72;;;15.71;33.23
61434;BME280;47300;46.192;9.000;2023-02-04T06:45:49;98562.41;;;15.68;33.13
61434;BME280;47300;46.192;9.000;2023-02-04T06:48:15;98583.72;;;15.61;33.14
61434;BME280;47300;46.192;9.000;2023-02-04T06:50:40;98577.44;;;15.66;33.10
61434;BME280;47300;46.192;9.000;2023-02-04T06:53:05;98580.44;;;15.50;33.67
61434;BME280;47300;46.192;9.000;2023-02-04T06:55:30;98587.31;;;15.57;33.12
61434;BME280;47300;46.192;9.000;2023-02-04T06:57:55;98581.25;;;15.54;32.97
61434;BME280;47300;46.192;9.000;2023-02-04T07:00:21;98565.41;;;15.52;33.47
61434;BME280;47300;46.192;9.000;2023-02-04T07:02:46;98583.63;;;15.65;33.19
61434;BME280;47300;46.192;9.000;2023-02-04T07:05:11;98568.50;;;15.71;32.89
61434;BME280;47300;46.192;9.000;2023-02-04T07:07:36;98572.88;;;15.72;31.95
61434;BME280;47300;46.192;9.000;2023-02-04T07:10:02;98587.94;;;15.70;32.53
61434;BME280;47300;46.192;9.000;2023-02-04T07:12:27;98584.41;;;15.70;32.78
61434;BME280;47300;46.192;9.000;2023-02-04T07:14:52;98577.50;;;15.64;33.11
61434;BME280;47300;46.192;9.000;2023-02-04T07:17:17;98567.81;;;15.63;33.30
61434;BME280;47300;46.192;9.000;2023-02-04T07:19:43;98571.06;;;15.74;33.08
61434;BME280;47300;46.192;9.000;2023-02-04T07:22:08;98593.69;;;15.91;32.88
61434;BME280;47300;46.192;9.000;2023-02-04T07:24:34;98579.69;;;15.83;33.16
61434;BME280;47300;46.192;9.000;2023-02-04T07:26:59;98577.09;;;15.81;32.95
61434;BME280;47300;46.192;9.000;2023-02-04T07:29:24;98579.69;;;15.84;32.77
61434;BME280;47300;46.192;9.000;2023-02-04T07:31:50;98556.66;;;15.89;32.87
61434;BME280;47300;46.192;9.000;2023-02-04T07:34:18;98565.41;;;15.93;32.88
61434;BME280;47300;46.192;9.000;2023-02-04T07:36:43;98568.94;;;15.92;33.19
61434;BME280;47300;46.192;9.000;2023-02-04T07:39:08;98557.66;;;15.82;33.23
61434;BME280;47300;46.192;9.000;2023-02-04T07:41:34;98559.34;;;15.85;33.16
61434;BME280;47300;46.192;9.000;2023-02-04T07:43:59;98549.59;;;15.87;33.08
61434;BME280;47300;46.192;9.000;2023-02-04T07:46:24;98556.69;;;15.86;33.11
61434;BME280;47300;46.192;9.000;2023-02-04T07:48:50;98564.59;;;15.88;32.81
61434;BME280;47300;46.192;9.000;2023-02-04T07:51:15;98591.16;;;16.21;32.22
61434;BME280;47300;46.192;9.000;2023-02-04T07:53:40;98583.84;;;16.67;31.92
61434;BME280;47300;46.192;9.000;2023-02-04T07:56:05;98601.22;;;17.12;31.43
61434;BME280;47300;46.192;9.000;2023-02-04T07:58:30;98587.56;;;17.26;30.79
61434;BME280;47300;46.192;9.000;2023-02-04T08:00:56;98597.06;;;17.63;30.18
61434;BME280;47300;46.192;9.000;2023-02-04T08:03:21;98586.69;;;17.56;30.19
61434;BME280;47300;46.192;9.000;2023-02-04T08:05:46;98578.38;;;17.95;30.01
61434;BME280;47300;46.192;9.000;2023-02-04T08:08:11;98586.09;;;17.74;30.20
61434;BME280;47300;46.192;9.000;2023-02-04T08:10:36;98601.47;;;17.93;30.25
61434;BME280;47300;46.192;9.000;2023-02-04T08:13:02;98628.25;;;17.55;30.91
61434;BME280;47300;46.192;9.000;2023-02-04T08:15:27;98631.06;;;17.81;30.48
61434;BME280;47300;46.192;9.000;2023-02-04T08:17:52;98650.59;;;18.08;30.53
61434;BME280;47300;46.192;9.000;2023-02-04T08:20:17;98596.88;;;18.27;30.20
61434;BME280;47300;46.192;9.000;2023-02-04T08:22:43;98618.41;;;18.19;29.71
61434;BME280;47300;46.192;9.000;2023-02-04T08:25:09;98609.25;;;17.98;30.57
61434;BME280;47300;46.192;9.000;2023-02-04T08:27:35;98617.84;;;17.77;30.98
61434;BME280;47300;46.192;9.000;2023-02-04T08:30:00;98643.50;;;17.48;31.15
61434;BME280;47300;46.192;9.000;2023-02-04T08:32:26;98626.38;;;17.59;31.24
61434;BME280;47300;46.192;9.000;2023-02-04T08:34:53;98639.25;;;17.73;30.96
61434;BME280;47300;46.192;9.000;2023-02-04T08:37:18;98647.22;;;17.41;31.06
61434;BME280;47300;46.192;9.000;2023-02-04T08:39:43;98657.84;;;17.73;29.85
61434;BME280;47300;46.192;9.000;2023-02-04T08:42:10;98657.78;;;17.74;31.19
61434;BME280;47300;46.192;9.000;2023-02-04T08:44:35;98641.63;;;17.52;30.97
61434;BME280;47300;46.192;9.000;2023-02-04T08:47:00;98652.53;;;17.73;31.04
61434;BME280;47300;46.192;9.000;2023-02-04T08:49:26;98659.53;;;18.05;30.42
61434;BME280;47300;46.192;9.000;2023-02-04T08:51:51;98647.03;;;18.09;30.50
61434;BME280;47300;46.192;9.000;2023-02-04T08:54:16;98674.53;;;18.06;30.35
61434;BME280;47300;46.192;9.000;2023-02-04T08:56:41;98657.84;;;17.73;31.04
61434;BME280;47300;46.192;9.000;2023-02-04T08:59:06;98651.78;;;17.68;31.17
61434;BME280;47300;46.192;9.000;2023-02-04T09:01:32;98687.31;;;17.63;31.27
61434;BME280;47300;46.192;9.000;2023-02-04T09:03:57;98693.78;;;17.53;31.17
61434;BME280;47300;46.192;9.000;2023-02-04T09:06:22;98669.16;;;17.16;32.11
61434;BME280;47300;46.192;9.000;2023-02-04T09:08:47;98684.81;;;16.91;32.22
61434;BME280;47300;46.192;9.000;2023-02-04T09:11:13;98711.63;;;17.15;32.35
61434;BME280;47300;46.192;9.000;2023-02-04T09:13:39;98702.53;;;17.25;31.47
61434;BME280;47300;46.192;9.000;2023-02-04T09:16:04;98697.03;;;16.97;32.41
61434;BME280;47300;46.192;9.000;2023-02-04T09:18:29;98693.41;;;17.01;32.33
61434;BME280;47300;46.192;9.000;2023-02-04T09:20:56;98685.69;;;17.26;32.38
61434;BME280;47300;46.192;9.000;2023-02-04T09:23:22;98700.78;;;17.24;32.23
61434;BME280;47300;46.192;9.000;2023-02-04T09:25:47;98728.72;;;17.38;32.03
61434;BME280;47300;46.192;9.000;2023-02-04T09:28:13;98715.75;;;17.58;31.57
61434;BME280;47300;46.192;9.000;2023-02-04T09:30:39;98737.91;;;17.89;31.49
61434;BME280;47300;46.192;9.000;2023-02-04T09:33:04;98739.97;;;17.46;30.97
61434;BME280;47300;46.192;9.000;2023-02-04T09:35:29;98767.00;;;17.60;31.53
61434;BME280;47300;46.192;9.000;2023-02-04T09:37:55;98774.34;;;17.17;31.75
61434;BME280;47300;46.192;9.000;2023-02-04T09:40:20;98747.66;;;17.57;31.31
61434;BME280;47300;46.192;9.000;2023-02-04T09:42:47;98761.72;;;17.27;30.89
61434;BME280;47300;46.192;9.000;2023-02-04T09:45:17;98776.28;;;17.45;30.90
61434;BME280;47300;46.192;9.000;2023-02-04T09:47:43;98759.25;;;17.19;30.95
61434;BME280;47300;46.192;9.000;2023-02-04T09:50:15;98730.59;;;16.99;31.42
61434;BME280;47300;46.192;9.000;2023-02-04T09:52:42;98765.09;;;16.98;31.49
61434;BME280;47300;46.192;9.000;2023-02-04T09:55:11;98767.28;;;17.16;31.49
61434;BME280;47300;46.192;9.000;2023-02-04T09:57:37;98754.75;;;17.88;29.79
61434;BME280;47300;46.192;9.000;2023-02-04T10:00:05;98780.84;;;17.39;30.88
61434;BME280;47300;46.192;9.000;2023-02-04T10:02:30;98765.31;;;17.25;30.60
61434;BME280;47300;46.192;9.000;2023-02-04T10:04:56;98767.53;;;17.40;30.49
61434;BME280;47300;46.192;9.000;2023-02-04T10:07:22;98779.38;;;17.28;30.49
61434;BME280;47300;46.192;9.000;2023-02-04T10:09:49;98783.91;;;17.23;30.94
61434;BME280;47300;46.192;9.000;2023-02-04T10:12:15;98790.72;;;16.97;31.42
61434;BME280;47300;46.192;9.000;2023-02-04T10:14:40;98803.19;;;17.30;30.64
61434;BME280;47300;46.192;9.000;2023-02-04T10:17:06;98821.66;;;17.34;30.39
61434;BME280;47300;46.192;9.000;2023-02-04T10:19:32;98802.50;;;17.56;30.01
61434;BME280;47300;46.192;9.000;2023-02-04T10:21:58;98800.44;;;17.33;30.98
61434;BME280;47300;46.192;9.000;2023-02-04T10:24:24;98807.59;;;17.31;30.46
61434;BME280;47300;46.192;9.000;2023-02-04T10:27:05;98810.41;;;17.25;30.92
61434;BME280;47300;46.192;9.000;2023-02-04T10:29:30;98864.50;;;17.54;30.55
61434;BME280;47300;46.192;9.000;2023-02-04T10:31:55;98824.53;;;17.60;29.94
61434;BME280;47300;46.192;9.000;2023-02-04T10:34:22;98808.50;;;17.96;29.72
61434;BME280;47300;46.192;9.000;2023-02-04T10:36:48;98821.22;;;17.85;29.83
61434;BME280;47300;46.192;9.000;2023-02-04T10:39:18;98809.63;;;17.87;29.84
61434;BME280;47300;46.192;9.000;2023-02-04T10:41:47;98836.69;;;18.33;29.60
61434;BME280;47300;46.192;9.000;2023-02-04T10:44:14;98857.97;;;18.90;28.48
61434;BME280;47300;46.192;9.000;2023-02-04T10:46:40;98856.72;;;18.45;29.21
61434;BME280;47300;46.192;9.000;2023-02-04T10:49:19;98850.78;;;18.65;28.90
61434;BME280;47300;46.192;9.000;2023-02-04T10:51:44;98845.19;;;19.03;28.66
61434;BME280;47300;46.192;9.000;2023-02-04T10:54:11;98837.09;;;18.78;28.41
61434;BME280;47300;46.192;9.000;2023-02-04T10:56:58;98849.25;;;18.87;28.93
61434;BME280;47300;46.192;9.000;2023-02-04T10:59:24;98849.28;;;18.27;29.30
61434;BME280;47300;46.192;9.000;2023-02-04T11:01:51;98838.44;;;18.03;29.74
61434;BME280;47300;46.192;9.000;2023-02-04T11:04:17;98817.53;;;18.22;29.48
61434;BME280;47300;46.192;9.000;2023-02-04T11:06:42;98846.66;;;18.55;29.07
61434;BME280;47300;46.192;9.000;2023-02-04T11:09:10;98861.53;;;18.31;28.58
61434;BME280;47300;46.192;9.000;2023-02-04T11:11:35;98831.25;;;18.66;28.92
61434;BME280;47300;46.192;9.000;2023-02-04T11:14:01;98810.94;;;18.35;29.58
61434;BME280;47300;46.192;9.000;2023-02-04T11:16:29;98820.66;;;18.93;29.11
61434;BME280;47300;46.192;9.000;2023-02-04T11:19:00;98830.03;;;19.34;28.05
61434;BME280;47300;46.192;9.000;2023-02-04T11:26:36;98842.59;;;18.12;29.40
61434;BME280;47300;46.192;9.000;2023-02-04T11:36:33;98844.88;;;18.56;28.65
61434;BME280;47300;46.192;9.000;2023-02-04T11:39:05;98860.22;;;19.06;27.70
61434;BME280;47300;46.192;9.000;2023-02-04T11:41:31;98838.13;;;19.02;27.85
61434;BME280;47300;46.192;9.000;2023-02-04T11:43:57;98837.28;;;18.43;28.62
61434;BME280;47300;46.192;9.000;2023-02-04T11:46:23;98836.19;;;19.07;28.18
61434;BME280;47300;46.192;9.000;2023-02-04T11:48:53;98853.34;;;18.39;28.63
61434;BME280;47300;46.192;9.000;2023-02-04T11:51:20;98819.13;;;18.28;29.23
61434;BME280;47300;46.192;9.000;2023-02-04T11:53:50;98814.31;;;18.41;29.77
61434;BME280;47300;46.192;9.000;2023-02-04T11:56:16;98834.69;;;18.70;29.43
61434;BME280;47300;46.192;9.000;2023-02-04T11:58:42;98831.91;;;18.73;29.72
61434;BME280;47300;46.192;9.000;2023-02-04T12:01:20;98841.69;;;18.73;29.29
61434;BME280;47300;46.192;9.000;2023-02-04T12:03:48;98830.16;;;19.02;27.97
61434;BME280;47300;46.192;9.000;2023-02-04T12:06:20;98810.28;;;18.57;29.33
61434;BME280;47300;46.192;9.000;2023-02-04T12:08:45;98843.13;;;18.25;29.37
61434;BME280;47300;46.192;9.000;2023-02-04T12:13:52;98848.22;;;18.62;28.99
61434;BME280;47300;46.192;9.000;2023-02-04T12:16:17;98838.00;;;18.48;29.19
61434;BME280;47300;46.192;9.000;2023-02-04T12:18:43;98838.63;;;18.58;29.03
61434;BME280;47300;46.192;9.000;2023-02-04T12:21:08;98854.38;;;18.34;29.45
61434;BME280;47300;46.192;9.000;2023-02-04T12:23:34;98852.84;;;18.86;28.25
61434;BME280;47300;46.192;9.000;2023-02-04T12:25:59;98836.81;;;18.29;29.15
61434;BME280;47300;46.192;9.000;2023-02-04T12:28:24;98833.81;;;19.00;29.11
61434;BME280;47300;46.192;9.000;2023-02-04T12:30:51;98820.34;;;19.04;28.13
61434;BME280;47300;46.192;9.000;2023-02-04T12:33:17;98857.47;;;18.79;28.04
61434;BME280;47300;46.192;9.000;2023-02-04T12:35:42;98815.22;;;18.40;28.67
61434;BME280;47300;46.192;9.000;2023-02-04T12:38:07;98833.63;;;18.47;28.21
61434;BME280;47300;46.192;9.000;2023-02-04T12:40:33;98827.53;;;18.72;28.51
61434;BME280;47300;46.192;9.000;2023-02-04T12:42:58;98826.66;;;18.72;28.08
61434;BME280;47300;46.192;9.000;2023-02-04T12:45:23;98845.84;;;18.23;28.51
61434;BME280;47300;46.192;9.000;2023-02-04T12:47:49;98839.28;;;18.35;28.90
61434;BME280;47300;46.192;9.000;2023-02-04T12:50:15;98838.63;;;17.95;29.13
61434;BME280;47300;46.192;9.000;2023-02-04T12:52:46;98817.09;;;18.66;28.60
61434;BME280;47300;46.192;9.000;2023-02-04T12:55:12;98831.16;;;18.10;28.60
61434;BME280;47300;46.192;9.000;2023-02-04T12:57:37;98829.91;;;17.90;28.98
61434;BME280;47300;46.192;9.000;2023-02-04T13:00:02;98823.63;;;18.26;28.83
61434;BME280;47300;46.192;9.000;2023-02-04T13:02:28;98812.56;;;18.40;28.34
61434;BME280;47300;46.192;9.000;2023-02-04T13:04:53;98808.06;;;18.12;28.54
61434;BME280;47300;46.192;9.000;2023-02-04T13:07:18;98829.66;;;18.61;28.31
61434;BME280;47300;46.192;9.000;2023-02-04T13:09:45;98820.06;;;18.55;27.60